Time;durP1;ratioP1;P1;durP2;ratioP2;P2;SDS_P1;SDS_P2;PMS_P1;PMS_P2;Temp;Humidity;BMP_temperature;BMP_pressure;BME280_temperature;BME280_humidity;BME280_pressure;Samples;Min_cycle;Max_cycle;Signal;HPM_P1;HPM_P2
2023/04/05 00:00:57;;;;;;;10.20;4.43;;;5.00;99.90;;;;;;4964661;28;20695;-93
2023/04/05 00:03:25;;;;;;;9.38;3.83;;;4.20;99.90;;;;;;4963325;28;20043;-93
2023/04/05 00:05:53;;;;;;;7.85;3.70;;;4.30;99.90;;;;;;4966324;28;20058;-92
2023/04/05 00:08:22;;;;;;;12.05;4.95;;;4.20;99.90;;;;;;4966572;28;20041;-93
2023/04/05 00:10:49;;;;;;;10.23;4.13;;;4.20;99.90;;;;;;4962815;28;20118;-91
2023/04/05 00:13:15;;;;;;;11.35;4.55;;;4.70;99.90;;;;;;4965690;28;20592;-92
2023/04/05 00:15:41;;;;;;;12.95;4.53;;;4.10;99.90;;;;;;4959059;28;20054;-93
2023/04/05 00:18:07;;;;;;;10.48;3.72;;;4.00;99.90;;;;;;4960012;28;20042;-91
2023/04/05 00:20:36;;;;;;;8.90;3.67;;;4.00;99.90;;;;;;4964994;28;20552;-91
2023/04/05 00:23:01;;;;;;;8.18;3.75;;;4.00;99.90;;;;;;4965644;28;20051;-92
2023/04/05 00:25:27;;;;;;;8.93;5.00;;;4.10;99.90;;;;;;4960523;28;20161;-93
2023/04/05 00:27:53;;;;;;;8.15;3.50;;;3.90;99.90;;;;;;4955760;28;20185;-92
2023/04/05 00:30:22;;;;;;;7.93;3.65;;;3.80;99.90;;;;;;4964447;28;20202;-92
2023/04/05 00:32:48;;;;;;;11.13;5.28;;;3.70;99.90;;;;;;4965656;28;20105;-91
2023/04/05 00:35:15;;;;;;;9.30;3.95;;;3.70;99.90;;;;;;4944852;28;20050;-92
2023/04/05 00:37:41;;;;;;;8.90;4.30;;;3.70;99.90;;;;;;4964871;28;20050;-92
2023/04/05 00:40:07;;;;;;;11.38;4.28;;;3.60;99.90;;;;;;4948420;28;20050;-92
2023/04/05 00:42:36;;;;;;;13.00;5.40;;;3.50;99.90;;;;;;4964691;28;20047;-91
2023/04/05 00:45:01;;;;;;;9.45;4.32;;;3.40;99.90;;;;;;4961912;28;20512;-92
2023/04/05 00:47:27;;;;;;;12.90;4.93;;;3.40;99.90;;;;;;4948721;28;20374;-92
2023/04/05 00:49:53;;;;;;;11.52;4.75;;;3.40;99.90;;;;;;4962478;28;20055;-91
2023/04/05 00:52:22;;;;;;;9.27;3.67;;;3.30;99.90;;;;;;4958014;28;20058;-90
2023/04/05 00:54:51;;;;;;;11.60;4.78;;;3.30;99.90;;;;;;4961873;28;20824;-91
2023/04/05 00:57:17;;;;;;;10.10;4.13;;;3.20;99.90;;;;;;4961778;28;20039;-90
2023/04/05 00:59:42;;;;;;;11.18;5.20;;;3.30;99.90;;;;;;4964617;28;20437;-91
2023/04/05 01:02:32;;;;;;;9.85;4.68;;;3.30;99.90;;;;;;4978689;28;20130;-92
2023/04/05 01:05:04;;;;;;;12.07;4.90;;;3.30;99.90;;;;;;4954243;28;20051;-90
2023/04/05 01:08:12;;;;;;;9.93;4.70;;;3.20;99.90;;;;;;4962753;28;20497;-90
2023/04/05 01:10:43;;;;;;;10.18;4.45;;;3.10;99.90;;;;;;4966433;28;20047;-91
2023/04/05 01:13:08;;;;;;;10.40;4.93;;;3.10;99.90;;;;;;4964769;28;20047;-92
2023/04/05 01:15:34;;;;;;;11.13;4.18;;;3.10;99.90;;;;;;4964025;28;20054;-91
2023/04/05 01:18:03;;;;;;;9.65;4.60;;;3.10;99.90;;;;;;4964923;28;20046;-91
2023/04/05 01:20:39;;;;;;;10.40;4.95;;;3.10;99.90;;;;;;4955440;28;20039;-91
2023/04/05 01:23:21;;;;;;;11.18;5.00;;;3.00;99.90;;;;;;4962370;28;20509;-90
2023/04/05 01:26:04;;;;;;;11.27;5.25;;;3.00;99.90;;;;;;4963985;28;20780;-90
2023/04/05 01:28:58;;;;;;;13.82;5.22;;;3.00;99.90;;;;;;4962869;28;20039;-91
2023/04/05 01:31:46;;;;;;;10.15;4.72;;;3.00;99.90;;;;;;4956709;28;20047;-91
2023/04/05 01:34:24;;;;;;;11.30;5.10;;;3.00;99.90;;;;;;4962726;28;20177;-91
2023/04/05 01:37:00;;;;;;;10.93;5.30;;;2.90;99.90;;;;;;4954956;28;20043;-91
2023/04/05 01:39:28;;;;;;;13.77;5.28;;;2.90;99.90;;;;;;4959613;28;20053;-90
2023/04/05 01:42:01;;;;;;;14.07;4.72;;;2.80;99.90;;;;;;4964371;28;20190;-91
2023/04/05 01:44:27;;;;;;;11.48;4.55;;;2.80;99.90;;;;;;4962093;28;20760;-90
2023/04/05 01:46:53;;;;;;;15.45;5.93;;;2.90;99.90;;;;;;4961974;28;20110;-90
2023/04/05 01:49:19;;;;;;;10.35;5.43;;;2.90;99.90;;;;;;4958195;28;20059;-91
2023/04/05 01:51:45;;;;;;;11.73;5.22;;;2.90;99.90;;;;;;4947002;28;20046;-90
2023/04/05 01:54:11;;;;;;;11.98;5.47;;;2.90;99.90;;;;;;4959573;28;20509;-89
2023/04/05 01:56:37;;;;;;;11.23;5.35;;;2.90;99.90;;;;;;4958006;28;20042;-91
2023/04/05 01:59:05;;;;;;;10.30;4.70;;;2.80;99.90;;;;;;4975926;28;20858;-90
2023/04/05 02:01:31;;;;;;;10.13;4.90;;;2.80;99.90;;;;;;4974057;28;20244;-90
2023/04/05 02:03:56;;;;;;;9.85;4.72;;;2.80;99.90;;;;;;4960991;28;20058;-91
2023/04/05 02:06:22;;;;;;;8.98;4.40;;;2.90;99.90;;;;;;4948377;28;20042;-90
2023/04/05 02:08:48;;;;;;;8.23;4.28;;;2.90;99.90;;;;;;4947133;28;20039;-89
2023/04/05 02:11:16;;;;;;;8.63;4.07;;;2.90;99.90;;;;;;4961203;28;20045;-90
2023/04/05 02:13:42;;;;;;;9.75;4.15;;;2.90;99.90;;;;;;4960190;28;20109;-90
2023/04/05 02:16:08;;;;;;;10.13;4.70;;;2.80;99.90;;;;;;4958714;28;20543;-90
2023/04/05 02:18:37;;;;;;;10.18;4.70;;;2.80;99.90;;;;;;4960022;28;20043;-90
2023/04/05 02:21:04;;;;;;;9.60;4.78;;;2.70;99.90;;;;;;4950140;28;20055;-89
2023/04/05 02:23:30;;;;;;;10.73;5.28;;;2.70;99.90;;;;;;4961565;28;20039;-89
2023/04/05 02:25:59;;;;;;;11.93;4.63;;;2.60;99.90;;;;;;4960220;28;20057;-90
2023/04/05 02:28:34;;;;;;;10.77;4.85;;;2.90;99.90;;;;;;4952979;28;20117;-90
2023/04/05 02:31:00;;;;;;;10.45;4.65;;;2.50;99.90;;;;;;4976394;28;20055;-90
2023/04/05 02:33:26;;;;;;;10.68;4.88;;;2.50;99.90;;;;;;4960368;28;20457;-90
2023/04/05 02:35:52;;;;;;;10.38;4.30;;;2.50;99.90;;;;;;4955975;28;20054;-90
2023/04/05 02:38:21;;;;;;;9.13;4.70;;;2.50;99.90;;;;;;4954217;28;20059;-90
2023/04/05 02:40:50;;;;;;;11.43;4.90;;;2.50;99.90;;;;;;4960559;28;20039;-90
2023/04/05 02:43:16;;;;;;;12.60;5.18;;;2.40;99.90;;;;;;4953874;28;20047;-90
2023/04/05 02:45:42;;;;;;;11.48;4.45;;;2.70;99.90;;;;;;4956135;28;20050;-90
2023/04/05 02:48:07;;;;;;;12.48;5.20;;;2.40;99.90;;;;;;4952105;28;20078;-89
2023/04/05 02:50:33;;;;;;;10.15;4.88;;;2.30;99.90;;;;;;4960094;28;20077;-90
2023/04/05 02:52:59;;;;;;;11.98;4.57;;;2.30;99.90;;;;;;4963384;28;20047;-89
2023/04/05 02:55:25;;;;;;;11.85;5.50;;;2.20;99.90;;;;;;4955928;28;20043;-89
2023/04/05 02:57:59;;;;;;;10.90;5.20;;;2.20;99.90;;;;;;4960122;28;20054;-89
2023/04/05 03:00:25;;;;;;;12.60;5.85;;;3.10;99.90;;;;;;4972815;28;20054;-89
2023/04/05 03:02:50;;;;;;;13.13;5.38;;;2.20;99.90;;;;;;4959489;28;20051;-89
2023/04/05 03:05:17;;;;;;;12.48;5.55;;;2.10;99.90;;;;;;4964250;28;20041;-89
2023/04/05 03:07:45;;;;;;;12.63;5.82;;;2.10;99.90;;;;;;4961468;28;20046;-89
2023/04/05 03:10:12;;;;;;;13.57;6.53;;;2.00;99.90;;;;;;4959384;28;20501;-89
2023/04/05 03:12:38;;;;;;;13.25;5.88;;;2.00;99.90;;;;;;4962258;28;20149;-89
2023/04/05 03:15:05;;;;;;;13.98;7.75;;;2.40;99.90;;;;;;4960925;28;20555;-89
2023/04/05 03:17:31;;;;;;;12.30;5.65;;;2.00;99.90;;;;;;4971825;28;20081;-89
2023/04/05 03:19:56;;;;;;;12.85;5.55;;;2.00;99.90;;;;;;4958049;28;20576;-89
2023/04/05 03:22:26;;;;;;;12.30;6.25;;;2.00;99.90;;;;;;4961522;28;20146;-89
2023/04/05 03:24:51;;;;;;;10.40;5.28;;;2.00;99.90;;;;;;4955586;28;20059;-88
2023/04/05 03:27:17;;;;;;;13.50;6.68;;;2.00;99.90;;;;;;4960486;28;20035;-89
2023/04/05 03:29:43;;;;;;;17.13;7.13;;;2.10;99.90;;;;;;4961532;28;20066;-88
2023/04/05 03:32:10;;;;;;;14.10;6.03;;;2.00;99.90;;;;;;4963792;28;20496;-89
2023/04/05 03:34:37;;;;;;;10.98;5.78;;;2.00;99.90;;;;;;4979242;28;20058;-88
2023/04/05 03:37:03;;;;;;;12.52;6.55;;;2.00;99.90;;;;;;4964347;28;20047;-89
2023/04/05 03:39:29;;;;;;;12.75;6.40;;;2.00;99.90;;;;;;4961543;28;20784;-88
2023/04/05 03:41:55;;;;;;;15.00;6.32;;;2.30;99.90;;;;;;4957706;28;20161;-88
2023/04/05 03:44:21;;;;;;;14.52;6.95;;;1.90;99.90;;;;;;4956756;28;20079;-88
2023/04/05 03:46:47;;;;;;;15.63;6.97;;;1.90;99.90;;;;;;4964468;28;20146;-89
2023/04/05 03:49:12;;;;;;;13.75;6.50;;;1.80;99.90;;;;;;4962999;28;20090;-89
2023/04/05 03:51:44;;;;;;;15.27;7.00;;;2.40;99.90;;;;;;4954832;28;20039;-89
2023/04/05 03:54:10;;;;;;;12.50;6.68;;;1.80;99.90;;;;;;4957936;28;20429;-89
2023/04/05 03:56:38;;;;;;;15.45;7.53;;;1.70;99.90;;;;;;4961646;28;20687;-88
2023/04/05 03:59:04;;;;;;;14.02;6.90;;;2.60;99.90;;;;;;4961126;28;20042;-89
2023/04/05 04:01:30;;;;;;;15.63;7.03;;;1.70;99.90;;;;;;4960993;28;20031;-88
2023/04/05 04:03:55;;;;;;;13.98;7.07;;;1.70;99.90;;;;;;4962641;28;20054;-89
2023/04/05 04:06:25;;;;;;;15.05;7.90;;;1.70;99.90;;;;;;4961042;28;20488;-88
2023/04/05 04:08:51;;;;;;;13.63;7.03;;;1.70;99.90;;;;;;4972587;28;20055;-87
2023/04/05 04:11:17;;;;;;;15.68;7.25;;;1.70;99.90;;;;;;4972240;28;20051;-88
2023/04/05 04:13:43;;;;;;;18.17;8.68;;;1.70;99.90;;;;;;4953806;28;20047;-88
2023/04/05 04:16:09;;;;;;;15.23;8.40;;;1.70;99.90;;;;;;4960149;28;20070;-88
2023/04/05 04:18:40;;;;;;;12.43;6.72;;;1.70;99.90;;;;;;4959932;28;20058;-88
2023/04/05 04:21:06;;;;;;;15.40;7.90;;;1.70;99.90;;;;;;4974199;28;20050;-87
2023/04/05 04:23:33;;;;;;;14.98;7.18;;;1.70;99.90;;;;;;4954023;28;20043;-88
2023/04/05 04:26:00;;;;;;;14.52;8.10;;;1.80;99.90;;;;;;4962405;28;20054;-88
2023/04/05 04:28:26;;;;;;;14.65;6.93;;;1.80;99.90;;;;;;4962524;28;20121;-88
2023/04/05 04:30:52;;;;;;;20.42;9.35;;;1.80;99.90;;;;;;4975204;28;20130;-87
2023/04/05 04:33:18;;;;;;;16.17;7.28;;;1.80;99.90;;;;;;4959050;28;20350;-88
2023/04/05 04:35:45;;;;;;;17.10;8.50;;;1.80;99.90;;;;;;4960110;28;20058;-88
2023/04/05 04:38:17;;;;;;;16.60;8.98;;;1.80;99.90;;;;;;4960222;28;20052;-89
2023/04/05 04:40:49;;;;;;;13.48;7.53;;;1.80;99.90;;;;;;4958219;28;20058;-88
2023/04/05 04:43:18;;;;;;;18.35;8.50;;;1.80;99.90;;;;;;4960360;28;20504;-88
2023/04/05 04:45:49;;;;;;;17.95;9.35;;;1.80;99.90;;;;;;4961574;28;20042;-89
2023/04/05 04:48:17;;;;;;;14.90;8.18;;;1.80;99.90;;;;;;4958733;28;20037;-86
2023/04/05 04:50:45;;;;;;;16.20;7.18;;;1.80;99.90;;;;;;4959069;28;20149;-88
2023/04/05 04:53:12;;;;;;;15.57;9.07;;;1.70;99.90;;;;;;4975322;28;20081;-88
2023/04/05 04:55:41;;;;;;;15.00;8.52;;;1.80;99.90;;;;;;4958195;28;20085;-87
2023/04/05 04:58:11;;;;;;;15.73;8.75;;;1.70;99.90;;;;;;4959157;28;20054;-88
2023/04/05 05:00:42;;;;;;;17.13;9.35;;;1.60;99.90;;;;;;4948175;28;20117;-91
2023/04/05 05:03:10;;;;;;;16.33;9.00;;;1.70;99.90;;;;;;4959678;28;20054;-90
2023/04/05 05:05:44;;;;;;;14.60;7.80;;;1.70;99.90;;;;;;4966785;28;20039;-90
2023/04/05 05:08:10;;;;;;;16.45;9.57;;;1.70;99.90;;;;;;4964713;28;20049;-89
2023/04/05 05:10:36;;;;;;;18.15;9.88;;;1.70;99.90;;;;;;4961946;28;20030;-87
2023/04/05 05:13:02;;;;;;;18.27;9.90;;;1.70;99.90;;;;;;4964924;28;20819;-87
2023/04/05 05:15:28;;;;;;;20.38;9.48;;;1.70;99.90;;;;;;4965352;28;20050;-88
2023/04/05 05:17:54;;;;;;;24.88;11.10;;;1.70;99.90;;;;;;4974729;28;20055;-88
2023/04/05 05:20:21;;;;;;;20.10;10.63;;;1.60;99.90;;;;;;4957787;28;20039;-88
2023/04/05 05:22:47;;;;;;;22.90;10.73;;;1.70;99.90;;;;;;4962370;28;20050;-87
2023/04/05 05:25:13;;;;;;;19.13;10.00;;;1.60;99.90;;;;;;4960912;28;20090;-87
2023/04/05 05:27:39;;;;;;;19.23;11.05;;;1.60;99.90;;;;;;4953433;28;20150;-87
2023/04/05 05:30:05;;;;;;;19.05;10.50;;;1.60;99.90;;;;;;4960895;28;20043;-88
2023/04/05 05:32:31;;;;;;;17.92;10.65;;;1.60;99.90;;;;;;4960665;28;20129;-87
2023/04/05 05:34:57;;;;;;;14.88;8.60;;;1.60;99.90;;;;;;4962372;28;20647;-87
2023/04/05 05:37:30;;;;;;;15.48;9.13;;;1.60;99.90;;;;;;4960894;28;20044;-87
2023/04/05 05:39:56;;;;;;;17.23;9.98;;;1.60;99.90;;;;;;4963192;28;20136;-87
2023/04/05 05:42:22;;;;;;;17.77;10.43;;;1.60;99.90;;;;;;4962691;28;20153;-87
2023/04/05 05:44:48;;;;;;;15.98;9.85;;;1.50;99.90;;;;;;4946982;28;20365;-86
2023/04/05 05:47:14;;;;;;;18.80;10.70;;;1.50;99.90;;;;;;4964068;28;20039;-87
2023/04/05 05:49:40;;;;;;;18.40;10.98;;;1.50;99.90;;;;;;4948697;28;20053;-86
2023/04/05 05:52:06;;;;;;;16.15;8.48;;;1.50;99.90;;;;;;4967716;28;20046;-86
2023/04/05 05:54:32;;;;;;;20.48;10.88;;;1.50;99.90;;;;;;4965038;28;20054;-86
2023/04/05 05:57:01;;;;;;;20.40;10.82;;;1.50;99.90;;;;;;4968091;28;20061;-86
2023/04/05 05:59:27;;;;;;;20.73;9.82;;;1.50;99.90;;;;;;4963870;28;20070;-87
2023/04/05 06:01:55;;;;;;;20.63;11.38;;;1.50;99.90;;;;;;4964469;28;20570;-88
2023/04/05 06:04:21;;;;;;;22.40;10.73;;;1.50;99.90;;;;;;5050273;23;20126;-90
2023/04/05 06:06:47;;;;;;;23.73;10.68;;;1.40;99.90;;;;;;5015512;28;20110;-88
2023/04/05 06:09:17;;;;;;;25.05;12.63;;;1.60;99.90;;;;;;5001883;28;20168;-87
2023/04/05 06:11:43;;;;;;;21.75;11.77;;;1.60;99.90;;;;;;5014131;28;20057;-86
2023/04/05 06:14:08;;;;;;;18.08;10.70;;;1.60;99.90;;;;;;4990192;28;20088;-86
2023/04/05 06:16:34;;;;;;;22.02;11.95;;;1.70;99.90;;;;;;5017467;28;20042;-87
2023/04/05 06:19:00;;;;;;;19.83;11.07;;;1.70;99.90;;;;;;5021853;28;20179;-89
2023/04/05 06:21:26;;;;;;;18.17;10.43;;;1.60;99.90;;;;;;5009909;28;20041;-87
2023/04/05 06:23:53;;;;;;;18.33;10.68;;;1.70;99.90;;;;;;5018578;28;20045;-89
2023/04/05 06:26:21;;;;;;;18.83;10.82;;;1.70;99.90;;;;;;5022745;28;20041;-89
2023/04/05 06:28:48;;;;;;;18.77;10.38;;;1.70;99.90;;;;;;5018498;28;20046;-89
2023/04/05 06:31:15;;;;;;;18.10;9.88;;;1.70;99.90;;;;;;5015397;28;20787;-87
2023/04/05 06:33:41;;;;;;;23.33;12.60;;;1.80;99.90;;;;;;5013929;28;20153;-90
2023/04/05 06:36:08;;;;;;;20.13;12.27;;;1.80;99.90;;;;;;5019976;28;20644;-89
2023/04/05 06:38:33;;;;;;;21.52;11.98;;;1.80;99.90;;;;;;5014006;28;20034;-89
2023/04/05 06:40:59;;;;;;;18.40;11.25;;;1.90;99.90;;;;;;5001792;28;20057;-89
2023/04/05 06:43:25;;;;;;;18.23;10.70;;;1.90;99.90;;;;;;5005178;28;20053;-87
2023/04/05 06:45:51;;;;;;;19.98;11.70;;;1.90;99.90;;;;;;5011574;28;20546;-89
2023/04/05 06:48:17;;;;;;;18.77;11.80;;;1.90;99.90;;;;;;5008120;28;20038;-89
2023/04/05 06:50:45;;;;;;;21.15;12.23;;;1.90;99.90;;;;;;5012087;28;20486;-89
2023/04/05 06:53:13;;;;;;;19.33;11.70;;;2.00;99.90;;;;;;5021639;28;20782;-88
2023/04/05 06:55:38;;;;;;;21.90;12.25;;;2.00;99.90;;;;;;5016428;28;20056;-89
2023/04/05 06:58:04;;;;;;;16.52;10.88;;;2.10;99.90;;;;;;5011683;28;20041;-89
2023/04/05 07:00:31;;;;;;;15.95;9.95;;;2.10;99.90;;;;;;5017384;28;20043;-88
2023/04/05 07:02:57;;;;;;;18.88;10.38;;;2.20;99.90;;;;;;5016841;28;20124;-89
2023/04/05 07:05:23;;;;;;;19.75;11.52;;;2.20;99.90;;;;;;5002535;28;20052;-89
2023/04/05 07:07:49;;;;;;;18.85;10.60;;;2.20;99.90;;;;;;4999637;28;20449;-89
2023/04/05 07:10:15;;;;;;;19.13;11.93;;;2.30;99.90;;;;;;5008458;28;20049;-88
2023/04/05 07:12:41;;;;;;;19.98;11.63;;;2.30;99.90;;;;;;5009489;28;20076;-87
2023/04/05 07:15:07;;;;;;;17.00;11.75;;;2.40;99.90;;;;;;5007973;28;20128;-88
2023/04/05 07:17:33;;;;;;;17.52;10.48;;;2.40;99.90;;;;;;5011766;28;20124;-88
2023/04/05 07:19:59;;;;;;;16.98;9.82;;;2.50;99.90;;;;;;5009546;28;20050;-89
2023/04/05 07:22:24;;;;;;;18.15;11.63;;;2.50;99.90;;;;;;5022096;28;20049;-85
2023/04/05 07:24:51;;;;;;;18.05;11.10;;;2.50;99.90;;;;;;5008274;28;20492;-82
2023/04/05 07:27:17;;;;;;;15.27;11.50;;;2.60;99.90;;;;;;5010226;28;20240;-83
2023/04/05 07:29:43;;;;;;;18.48;10.88;;;2.70;99.90;;;;;;5012165;28;20206;-82
2023/04/05 07:32:09;;;;;;;18.35;11.43;;;2.70;99.90;;;;;;5010220;28;20082;-81
2023/04/05 07:34:35;;;;;;;17.95;10.65;;;2.70;99.90;;;;;;5018069;28;20041;-87
2023/04/05 07:37:04;;;;;;;20.63;11.85;;;2.80;99.90;;;;;;5008883;28;20056;-89
2023/04/05 07:39:32;;;;;;;16.75;9.93;;;2.80;99.90;;;;;;5017060;28;20133;-88
2023/04/05 07:41:57;;;;;;;16.60;11.18;;;2.80;99.90;;;;;;5018570;28;20037;-88
2023/04/05 07:44:23;;;;;;;16.73;10.48;;;2.90;99.90;;;;;;5011690;28;20048;-88
2023/04/05 07:46:49;;;;;;;16.17;11.35;;;3.00;99.90;;;;;;5010771;28;20046;-89
2023/04/05 07:49:22;;;;;;;17.77;10.88;;;3.00;99.90;;;;;;5035772;23;20057;-83
2023/04/05 07:51:49;;;;;;;16.17;10.63;;;3.10;99.90;;;;;;5025255;28;20053;-87
2023/04/05 07:54:15;;;;;;;16.67;10.13;;;3.30;99.90;;;;;;5017132;28;20056;-88
2023/04/05 07:56:41;;;;;;;15.50;9.90;;;2.60;99.90;;;;;;5029042;28;20037;-88
2023/04/05 07:59:07;;;;;;;15.40;9.40;;;3.30;99.90;;;;;;5029413;28;20108;-89
2023/04/05 08:01:33;;;;;;;17.85;9.43;;;3.40;99.90;;;;;;5014186;28;20048;-88
2023/04/05 08:03:59;;;;;;;16.50;9.07;;;3.50;99.90;;;;;;5012652;28;20491;-88
2023/04/05 08:06:26;;;;;;;19.98;10.70;;;3.50;99.90;;;;;;5020855;28;20083;-89
2023/04/05 08:08:52;;;;;;;18.02;10.68;;;3.60;99.90;;;;;;5020473;28;20155;-90
2023/04/05 08:11:18;;;;;;;15.60;9.80;;;3.60;99.90;;;;;;5021535;28;20500;-89
2023/04/05 08:13:43;;;;;;;16.40;10.55;;;3.70;99.90;;;;;;5030147;28;20038;-89
2023/04/05 08:16:10;;;;;;;16.80;10.10;;;3.80;99.90;;;;;;5026908;28;20038;-90
2023/04/05 08:18:36;;;;;;;17.50;10.95;;;4.20;99.90;;;;;;5029892;28;20037;-88
2023/04/05 08:21:02;;;;;;;15.02;10.15;;;3.90;99.90;;;;;;5032610;28;21763;-88
2023/04/05 08:23:28;;;;;;;16.80;10.52;;;3.90;99.90;;;;;;5027107;28;20048;-88
2023/04/05 08:25:54;;;;;;;17.17;10.20;;;4.00;99.90;;;;;;5009408;28;20045;-89
2023/04/05 08:28:20;;;;;;;12.63;8.02;;;4.10;99.90;;;;;;5034625;28;20384;-89
2023/04/05 08:30:46;;;;;;;16.65;9.43;;;4.20;99.90;;;;;;5036681;28;20040;-89
2023/04/05 08:33:12;;;;;;;17.90;9.82;;;4.20;99.90;;;;;;5028444;28;20537;-89
2023/04/05 08:35:39;;;;;;;16.60;9.60;;;4.30;99.90;;;;;;5032146;28;20041;-89
2023/04/05 08:38:06;;;;;;;13.32;8.57;;;4.50;99.90;;;;;;5008332;28;20073;-89
2023/04/05 08:40:43;;;;;;;16.35;9.00;;;4.50;99.90;;;;;;5026692;28;20037;-89
2023/04/05 08:43:11;;;;;;;14.13;8.80;;;4.70;99.90;;;;;;5025082;28;20041;-90
2023/04/05 08:45:48;;;;;;;17.10;8.60;;;4.80;99.90;;;;;;5025280;28;20103;-90
2023/04/05 08:48:14;;;;;;;13.15;8.27;;;4.90;99.90;;;;;;5024975;28;20029;-90
2023/04/05 08:50:40;;;;;;;13.35;7.50;;;5.00;99.90;;;;;;5030479;28;20057;-90
2023/04/05 08:53:09;;;;;;;13.70;7.22;;;5.10;99.90;;;;;;5010671;28;20626;-89
2023/04/05 08:55:38;;;;;;;13.57;6.88;;;5.20;99.90;;;;;;5032393;28;20383;-89
2023/04/05 08:58:11;;;;;;;11.57;7.28;;;5.40;99.90;;;;;;5030305;28;20049;-90
2023/04/05 09:00:38;;;;;;;13.68;7.03;;;5.50;99.90;;;;;;5024870;28;20776;-89
2023/04/05 09:03:05;;;;;;;12.73;7.28;;;5.70;99.90;;;;;;5024125;28;20045;-89
2023/04/05 09:05:32;;;;;;;10.70;7.10;;;5.80;99.90;;;;;;5026131;28;20476;-89
2023/04/05 09:07:59;;;;;;;9.60;6.25;;;6.00;99.90;;;;;;5032518;28;20041;-89
2023/04/05 09:10:26;;;;;;;11.93;6.32;;;6.10;99.90;;;;;;5031725;28;20041;-90
2023/04/05 09:12:53;;;;;;;10.60;5.60;;;6.30;99.90;;;;;;5027014;28;20084;-88
2023/04/05 09:15:23;;;;;;;11.15;5.93;;;6.40;99.90;;;;;;5025973;28;20034;-89
2023/04/05 09:17:49;;;;;;;13.20;5.85;;;6.60;99.90;;;;;;5031219;28;20037;-89
2023/04/05 09:20:15;;;;;;;11.35;5.47;;;6.70;99.90;;;;;;5059022;23;20053;-89
2023/04/05 09:22:45;;;;;;;11.60;6.05;;;6.90;99.90;;;;;;5043247;28;20060;-90
2023/04/05 09:25:32;;;;;;;9.98;5.82;;;7.00;99.90;;;;;;5040090;28;20060;-89
2023/04/05 09:28:04;;;;;;;11.75;6.13;;;7.20;99.90;;;;;;5017654;28;20107;-90
2023/04/05 09:30:31;;;;;;;8.43;3.22;;;7.40;99.90;;;;;;5034371;28;20056;-89
2023/04/05 09:32:57;;;;;;;10.95;4.10;;;7.50;99.90;;;;;;5026187;28;20057;-90
2023/04/05 09:35:26;;;;;;;9.50;4.65;;;7.80;99.90;;;;;;5025580;28;20053;-89
2023/04/05 09:37:53;;;;;;;6.88;3.70;;;8.30;99.90;;;;;;5037701;28;20053;-89
2023/04/05 09:40:20;;;;;;;9.07;4.32;;;8.00;99.90;;;;;;5017088;28;20041;-90
2023/04/05 09:42:46;;;;;;;8.52;4.40;;;8.10;99.90;;;;;;5032142;28;20570;-94
2023/04/05 09:45:13;;;;;;;10.90;4.53;;;8.30;99.90;;;;;;5049720;28;20051;-92
2023/04/05 09:47:40;;;;;;;8.10;3.28;;;8.30;99.90;;;;;;5042436;28;20041;-93
2023/04/05 09:50:27;;;;;;;9.70;3.85;;;8.50;99.90;;;;;;5045665;28;20120;-93
2023/04/05 09:53:14;;;;;;;6.90;3.55;;;8.60;99.90;;;;;;5038795;28;20049;-93
2023/04/05 09:55:41;;;;;;;7.95;3.70;;;8.70;99.90;;;;;;5038204;28;20080;-92
2023/04/05 09:58:20;;;;;;;7.80;3.72;;;8.80;99.90;;;;;;5062964;23;20061;-94
2023/04/05 10:00:53;;;;;;;8.57;3.67;;;8.90;99.90;;;;;;5028613;28;20104;-93
2023/04/05 10:03:20;;;;;;;8.43;3.88;;;9.80;99.90;;;;;;5039871;28;20045;-93
2023/04/05 10:05:47;;;;;;;8.38;3.85;;;9.70;99.90;;;;;;5041298;28;20037;-93
2023/04/05 10:08:18;;;;;;;7.32;3.30;;;9.20;99.90;;;;;;5045086;28;20040;-93
2023/04/05 10:10:52;;;;;;;6.57;3.67;;;8.60;99.90;;;;;;5038817;28;20048;-93
2023/04/05 10:13:19;;;;;;;8.13;3.58;;;10.00;99.90;;;;;;5038266;28;20120;-92
2023/04/05 10:15:49;;;;;;;7.90;3.50;;;9.50;99.90;;;;;;5030065;28;20856;-92
2023/04/05 10:18:20;;;;;;;8.45;4.50;;;9.60;99.20;;;;;;5051543;28;20037;-94
2023/04/05 10:20:49;;;;;;;8.40;4.75;;;9.70;98.70;;;;;;5043677;28;20887;-93
2023/04/05 10:23:18;;;;;;;9.10;4.53;;;9.80;98.00;;;;;;5033499;28;20041;-94
2023/04/05 10:25:50;;;;;;;8.55;4.97;;;9.80;97.20;;;;;;5054703;28;20065;-95
2023/04/05 10:28:33;;;;;;;9.40;4.47;;;9.90;96.90;;;;;;5045077;28;20033;-96
2023/04/05 10:31:27;;;;;;;11.18;4.80;;;10.00;97.30;;;;;;5095046;23;20060;-90
2023/04/05 10:34:05;;;;;;;8.73;5.00;;;10.10;97.60;;;;;;5044516;28;20113;-91
2023/04/05 10:37:15;;;;;;;8.82;5.00;;;10.30;97.50;;;;;;5054519;28;20276;-91
2023/04/05 10:39:46;;;;;;;9.45;4.95;;;10.40;96.60;;;;;;4985397;28;20046;-92
2023/04/05 10:42:26;;;;;;;8.73;4.30;;;10.50;97.20;;;;;;4992326;28;20052;-92
2023/04/05 10:45:03;;;;;;;9.73;5.18;;;10.60;97.30;;;;;;4991240;28;20866;-93
2023/04/05 10:47:34;;;;;;;6.65;4.60;;;10.70;95.80;;;;;;5012993;28;20073;-93
2023/04/05 10:50:03;;;;;;;8.35;4.70;;;10.80;94.40;;;;;;4992178;28;20125;-92
2023/04/05 10:52:29;;;;;;;7.18;4.57;;;10.90;95.80;;;;;;4991281;28;20107;-93
2023/04/05 10:54:58;;;;;;;8.13;4.05;;;11.10;95.10;;;;;;4976726;28;20133;-94
2023/04/05 10:57:25;;;;;;;7.68;4.00;;;11.30;94.10;;;;;;5010085;28;20938;-93
2023/04/05 10:59:52;;;;;;;7.65;4.35;;;11.30;93.00;;;;;;5010081;28;21174;-93
2023/04/05 11:02:18;;;;;;;8.82;4.45;;;11.20;93.20;;;;;;4992715;28;20033;-94
2023/04/05 11:04:44;;;;;;;8.32;3.85;;;11.20;93.40;;;;;;5006481;28;20046;-93
2023/04/05 11:07:11;;;;;;;7.10;4.15;;;11.20;93.00;;;;;;4988211;28;20387;-93
2023/04/05 11:09:39;;;;;;;7.55;4.30;;;11.30;91.80;;;;;;4992085;28;20150;-92
2023/04/05 11:12:05;;;;;;;7.38;4.68;;;11.30;93.20;;;;;;5048847;28;20134;-92
2023/04/05 11:14:34;;;;;;;9.73;4.70;;;11.30;92.40;;;;;;5054769;28;20072;-94
2023/04/05 11:17:00;;;;;;;8.88;4.78;;;11.40;92.90;;;;;;5032912;28;20049;-93
2023/04/05 11:19:44;;;;;;;7.68;4.68;;;11.50;92.70;;;;;;5052968;28;20048;-92
2023/04/05 11:22:11;;;;;;;9.73;4.70;;;11.50;92.50;;;;;;5058759;28;20033;-93
2023/04/05 11:24:52;;;;;;;9.23;4.85;;;11.50;92.80;;;;;;5037488;28;20561;-92
2023/04/05 11:27:26;;;;;;;7.15;4.38;;;11.60;92.70;;;;;;5049893;28;20184;-93
2023/04/05 11:29:53;;;;;;;9.90;4.35;;;11.60;92.60;;;;;;5042598;28;20044;-92
2023/04/05 11:32:20;;;;;;;6.45;3.80;;;11.70;92.40;;;;;;5044590;28;20048;-88
2023/04/05 11:35:07;;;;;;;8.40;4.55;;;11.70;92.50;;;;;;5044677;28;20073;-88
2023/04/05 11:38:08;;;;;;;8.00;4.55;;;11.90;92.80;;;;;;5045108;28;20178;-88
2023/04/05 11:40:42;;;;;;;8.00;4.60;;;12.00;90.10;;;;;;4965905;28;20604;-88
2023/04/05 11:43:11;;;;;;;8.77;4.10;;;12.10;91.60;;;;;;5041496;28;20450;-88
2023/04/05 11:45:38;;;;;;;8.77;4.38;;;12.20;91.60;;;;;;5026185;28;20041;-89
2023/04/05 11:48:06;;;;;;;8.52;4.28;;;12.20;90.80;;;;;;5048136;28;20101;-88
2023/04/05 11:50:33;;;;;;;7.85;4.85;;;12.30;90.90;;;;;;5047325;28;20343;-88
2023/04/05 11:53:16;;;;;;;8.52;4.75;;;12.40;90.50;;;;;;5047683;28;20037;-89
2023/04/05 11:55:47;;;;;;;7.68;4.15;;;12.50;90.00;;;;;;5047549;28;20144;-89
2023/04/05 11:58:24;;;;;;;7.75;3.55;;;12.50;89.90;;;;;;5058118;28;20398;-95
2023/04/05 12:01:00;;;;;;;6.72;4.13;;;12.60;90.20;;;;;;5047342;28;20124;-89
2023/04/05 12:03:28;;;;;;;6.22;3.67;;;12.70;90.40;;;;;;5044620;28;20466;-90
2023/04/05 12:05:55;;;;;;;10.02;4.35;;;12.80;89.90;;;;;;5047661;28;20052;-90
2023/04/05 12:08:22;;;;;;;8.07;3.80;;;13.00;89.00;;;;;;5054001;28;20037;-90
2023/04/05 12:11:00;;;;;;;7.40;4.07;;;12.80;88.00;;;;;;5052303;28;20331;-91
2023/04/05 12:13:26;;;;;;;7.30;4.10;;;12.90;87.70;;;;;;5035825;28;20068;-89
2023/04/05 12:15:52;;;;;;;9.90;4.28;;;13.00;88.30;;;;;;5048338;28;20060;-90
2023/04/05 12:18:18;;;;;;;9.05;4.05;;;13.10;88.00;;;;;;5036023;28;20052;-89
2023/04/05 12:20:44;;;;;;;10.10;4.53;;;13.20;86.90;;;;;;5050200;28;20041;-91
2023/04/05 12:23:10;;;;;;;7.65;3.72;;;13.20;87.50;;;;;;5045874;28;20056;-90
2023/04/05 12:25:37;;;;;;;7.40;3.72;;;13.30;87.00;;;;;;5027373;28;20043;-90
2023/04/05 12:28:05;;;;;;;5.90;3.80;;;13.40;85.40;;;;;;5055362;28;20079;-90
2023/04/05 12:30:35;;;;;;;7.38;3.95;;;13.50;85.90;;;;;;5052919;28;20518;-91
2023/04/05 12:33:08;;;;;;;7.20;4.10;;;13.60;85.10;;;;;;5052480;28;20033;-91
2023/04/05 12:35:34;;;;;;;8.05;4.80;;;13.60;82.70;;;;;;5054668;28;20045;-91
2023/04/05 12:38:04;;;;;;;6.95;3.60;;;13.70;83.30;;;;;;5045994;28;20384;-91
2023/04/05 12:40:32;;;;;;;7.88;4.10;;;13.70;85.60;;;;;;5028478;28;20396;-90
2023/04/05 12:43:06;;;;;;;7.65;3.90;;;13.80;83.30;;;;;;5043322;28;20056;-93
2023/04/05 12:45:40;;;;;;;7.70;4.57;;;13.70;82.50;;;;;;5049721;28;20128;-94
2023/04/05 12:48:24;;;;;;;7.57;4.20;;;13.70;83.90;;;;;;5037352;28;20040;-95
2023/04/05 12:50:54;;;;;;;6.78;3.55;;;13.90;84.00;;;;;;5064124;28;20064;-94
2023/04/05 12:53:27;;;;;;;8.10;3.53;;;13.90;83.50;;;;;;5062167;28;20048;-89